createdAt,value
2019-01-31T11:01:22.084Z,95820.00
2019-01-31T11:05:31.596Z,95819.00
2019-01-31T11:09:32.766Z,95817.00
2019-01-31T11:13:00.338Z,95820.00
2019-01-31T11:16:25.822Z,95818.00
2019-01-31T11:20:29.876Z,95822.00
2019-01-31T11:23:51.167Z,95815.00
2019-01-31T11:27:47.160Z,95816.00
2019-01-31T11:31:18.785Z,95811.00
2019-01-31T11:35:09.296Z,95805.00
2019-01-31T11:38:52.595Z,95804.00
2019-01-31T11:42:54.494Z,95806.00
2019-01-31T11:46:29.597Z,95807.00
2019-01-31T11:50:19.608Z,95805.00
2019-01-31T14:19:27.050Z,95838.00
2019-01-31T14:22:22.937Z,95841.00
2019-01-31T14:25:17.345Z,95839.00
2019-01-31T14:28:12.196Z,95834.00
2019-01-31T14:31:07.013Z,95844.00
2019-01-31T14:34:01.687Z,95840.00
2019-01-31T14:36:56.470Z,95852.00
2019-01-31T14:39:50.991Z,95847.00
2019-01-31T14:42:45.462Z,95845.00
2019-01-31T14:45:39.987Z,95856.00
2019-01-31T14:48:34.878Z,95855.00
2019-01-31T14:51:29.539Z,95857.00
2019-01-31T14:54:24.159Z,95854.00
2019-01-31T14:57:18.766Z,95858.00
2019-01-31T15:00:17.824Z,95859.00
2019-01-31T15:03:12.757Z,95852.00
2019-01-31T15:06:07.313Z,95848.00
2019-01-31T15:09:01.608Z,95851.00
2019-01-31T15:11:57.866Z,95857.00
2019-01-31T15:14:52.751Z,95864.00
2019-01-31T15:17:47.234Z,95859.00
2019-01-31T15:20:45.216Z,95854.00
2019-01-31T15:23:40.003Z,95847.00
2019-01-31T15:26:34.527Z,95860.00
2019-01-31T15:29:29.546Z,95855.00
2019-01-31T15:32:24.301Z,95856.00
2019-01-31T15:35:18.933Z,95864.00
2019-01-31T15:38:13.963Z,95852.00
2019-01-31T15:41:08.883Z,95858.00
2019-01-31T15:44:03.607Z,95860.00
2019-01-31T15:46:58.334Z,95865.00
2019-01-31T15:49:53.057Z,95867.00
2019-01-31T15:52:48.080Z,95867.00
2019-01-31T15:55:42.919Z,95872.00
2019-01-31T15:58:38.582Z,95872.00
2019-01-31T16:01:33.339Z,95860.00
2019-01-31T16:04:28.094Z,95861.00
2019-01-31T16:07:22.685Z,95864.00
2019-01-31T16:10:17.664Z,95869.00
2019-01-31T16:13:12.562Z,95871.00
2019-01-31T16:16:07.731Z,95870.00
2019-01-31T16:19:02.223Z,95872.00
2019-01-31T16:21:57.152Z,95885.00
2019-01-31T16:24:51.702Z,95876.00
2019-01-31T16:27:46.159Z,95878.00
2019-01-31T16:30:41.238Z,95884.00
2019-01-31T16:33:35.863Z,95893.00
2019-01-31T16:36:30.781Z,95889.00
2019-01-31T16:39:25.507Z,95891.00
2019-01-31T16:42:20.181Z,95895.00
2019-01-31T16:45:16.074Z,95893.00
2019-01-31T16:48:10.722Z,95900.00
2019-01-31T16:51:05.496Z,95902.00
2019-01-31T16:54:00.362Z,95899.00
2019-01-31T16:56:55.044Z,95899.00
2019-01-31T16:59:49.994Z,95901.00
2019-01-31T17:02:44.792Z,95894.00
2019-01-31T17:05:39.684Z,95893.00
2019-01-31T17:08:34.551Z,95894.00
2019-01-31T17:11:29.138Z,95892.00
2019-01-31T17:14:24.023Z,95895.00
2019-01-31T17:17:18.847Z,95901.00
2019-01-31T17:20:29.108Z,95891.00
2019-01-31T17:23:23.515Z,95895.00
2019-01-31T17:26:18.427Z,95891.00
2019-01-31T17:29:13.015Z,95889.00
2019-01-31T17:32:08.116Z,95891.00
2019-01-31T17:35:03.132Z,95893.00
2019-01-31T17:37:57.988Z,95896.00
2019-01-31T17:40:52.669Z,95899.00
2019-01-31T17:43:48.340Z,95910.00
2019-01-31T17:46:42.943Z,95905.00
2019-01-31T17:49:37.669Z,95900.00
2019-01-31T17:52:32.551Z,95900.00
2019-01-31T17:55:27.544Z,95895.00
2019-01-31T17:58:22.353Z,95893.00
2019-01-31T18:01:17.436Z,95897.00
2019-01-31T18:04:12.332Z,95907.00
2019-01-31T18:07:06.893Z,95888.00
2019-01-31T18:10:01.471Z,95898.00
2019-01-31T18:12:56.725Z,95895.00
2019-01-31T18:15:51.683Z,95897.00
2019-01-31T18:18:46.343Z,95901.00
2019-01-31T18:21:41.219Z,95899.00
2019-01-31T18:24:36.172Z,95893.00
2019-01-31T18:27:30.532Z,95890.00
2019-01-31T18:30:27.233Z,95899.00
2019-01-31T18:33:22.326Z,95884.00
2019-01-31T18:36:17.221Z,95897.00
2019-01-31T18:39:12.570Z,95894.00
2019-01-31T18:42:07.480Z,95894.00
2019-01-31T18:45:01.920Z,95898.00
2019-01-31T18:47:56.864Z,95898.00
2019-01-31T18:50:51.368Z,95908.00
2019-01-31T18:53:46.288Z,95912.00
2019-01-31T18:56:40.926Z,95915.00
2019-01-31T18:59:35.797Z,95916.00
2019-01-31T19:02:30.566Z,95916.00
2019-01-31T19:05:24.988Z,95922.00
2019-01-31T19:08:19.319Z,95923.00
2019-01-31T19:11:13.853Z,95919.00
2019-01-31T19:14:09.630Z,95924.00
2019-01-31T19:17:04.312Z,95925.00
2019-01-31T19:19:58.945Z,95921.00
2019-01-31T19:22:54.841Z,95916.00
2019-01-31T19:25:50.814Z,95928.00
2019-01-31T19:28:45.651Z,95921.00
2019-01-31T19:31:40.514Z,95918.00
2019-01-31T19:34:35.160Z,95930.00
2019-01-31T19:37:30.006Z,95926.00
2019-01-31T19:40:30.976Z,95936.00
2019-01-31T19:43:25.995Z,95939.00
2019-01-31T19:46:20.902Z,95930.00
2019-01-31T19:49:15.615Z,95937.00
2019-01-31T19:52:10.868Z,95943.00
2019-01-31T19:55:05.672Z,95943.00
2019-01-31T19:58:01.670Z,95940.00
2019-01-31T20:00:56.406Z,95936.00
2019-01-31T20:03:50.933Z,95930.00
2019-01-31T20:06:46.355Z,95932.00
2019-01-31T20:09:41.201Z,95934.00
2019-01-31T20:12:36.285Z,95937.00
2019-01-31T20:15:32.243Z,95935.00
2019-01-31T20:18:27.015Z,95936.00
2019-01-31T20:21:21.991Z,95931.00
2019-01-31T20:24:17.880Z,95920.00
2019-01-31T20:27:12.517Z,95930.00
2019-01-31T20:30:08.748Z,95924.00
2019-01-31T20:33:03.759Z,95922.00
2019-01-31T20:35:58.525Z,95930.00
2019-01-31T20:38:52.939Z,95929.00
2019-01-31T20:41:54.286Z,95912.00
2019-01-31T20:44:44.211Z,95922.00
2019-01-31T20:47:38.767Z,95929.00
2019-01-31T20:50:35.137Z,95928.00
2019-01-31T20:53:30.070Z,95933.00
2019-01-31T20:56:24.610Z,95915.00
2019-01-31T20:59:19.490Z,95921.00
2019-01-31T21:02:14.346Z,95917.00
2019-01-31T21:05:09.500Z,95917.00
2019-01-31T21:08:05.858Z,95923.00
2019-01-31T21:11:01.352Z,95918.00
2019-01-31T21:13:56.192Z,95922.00
2019-01-31T21:16:52.057Z,95924.00
2019-01-31T21:19:47.311Z,95918.00
2019-01-31T21:22:42.177Z,95925.00
2019-01-31T21:25:36.732Z,95925.00
2019-01-31T21:28:31.684Z,95938.00
2019-01-31T21:31:26.962Z,95921.00
2019-01-31T21:34:24.705Z,95928.00
2019-01-31T21:37:19.538Z,95936.00
2019-01-31T21:40:14.336Z,95932.00
2019-01-31T21:43:09.453Z,95948.00
2019-01-31T21:46:04.341Z,95929.00
2019-01-31T21:48:59.014Z,95927.00
2019-01-31T21:51:53.614Z,95932.00
2019-01-31T21:54:48.278Z,95925.00
2019-01-31T21:57:42.728Z,95936.00
2019-01-31T22:00:37.454Z,95943.00
